sensor_id;sensor_type;location;lat;lon;timestamp;P1;durP1;ratioP1;P2;durP2;ratioP2
8066;SDS011;4076;48.076;9.118;2022-08-19T00:01:24;382.47;;;366.60;;
8066;SDS011;4076;48.076;9.118;2022-08-19T00:03:51;395.80;;;379.13;;
8066;SDS011;4076;48.076;9.118;2022-08-19T00:06:17;383.30;;;367.50;;
8066;SDS011;4076;48.076;9.118;2022-08-19T00:08:42;402.57;;;385.53;;
8066;SDS011;4076;48.076;9.118;2022-08-19T00:11:08;377.87;;;362.33;;
8066;SDS011;4076;48.076;9.118;2022-08-19T00:13:34;391.10;;;375.60;;
8066;SDS011;4076;48.076;9.118;2022-08-19T00:16:00;403.53;;;388.07;;
8066;SDS011;4076;48.076;9.118;2022-08-19T00:18:26;392.60;;;377.00;;
8066;SDS011;4076;48.076;9.118;2022-08-19T00:20:52;401.77;;;385.70;;
8066;SDS011;4076;48.076;9.118;2022-08-19T00:23:18;412.07;;;394.73;;
8066;SDS011;4076;48.076;9.118;2022-08-19T00:25:44;402.37;;;386.37;;
8066;SDS011;4076;48.076;9.118;2022-08-19T00:28:10;406.57;;;389.80;;
8066;SDS011;4076;48.076;9.118;2022-08-19T00:30:36;397.67;;;381.53;;
8066;SDS011;4076;48.076;9.118;2022-08-19T00:33:01;394.30;;;378.90;;
8066;SDS011;4076;48.076;9.118;2022-08-19T00:35:28;390.43;;;375.47;;
8066;SDS011;4076;48.076;9.118;2022-08-19T00:37:54;408.90;;;392.00;;
8066;SDS011;4076;48.076;9.118;2022-08-19T00:40:20;406.23;;;389.73;;
8066;SDS011;4076;48.076;9.118;2022-08-19T00:42:46;409.97;;;392.67;;
8066;SDS011;4076;48.076;9.118;2022-08-19T00:45:16;405.80;;;388.77;;
8066;SDS011;4076;48.076;9.118;2022-08-19T00:47:45;400.90;;;384.60;;
8066;SDS011;4076;48.076;9.118;2022-08-19T00:50:12;393.97;;;378.37;;
8066;SDS011;4076;48.076;9.118;2022-08-19T00:52:42;389.27;;;373.47;;
8066;SDS011;4076;48.076;9.118;2022-08-19T00:55:12;378.77;;;364.10;;
8066;SDS011;4076;48.076;9.118;2022-08-19T00:57:50;365.27;;;350.93;;
8066;SDS011;4076;48.076;9.118;2022-08-19T01:00:19;362.07;;;347.40;;
8066;SDS011;4076;48.076;9.118;2022-08-19T01:02:46;372.03;;;356.30;;
8066;SDS011;4076;48.076;9.118;2022-08-19T01:05:14;364.97;;;349.90;;
8066;SDS011;4076;48.076;9.118;2022-08-19T01:07:43;348.80;;;335.20;;
8066;SDS011;4076;48.076;9.118;2022-08-19T01:10:11;339.30;;;326.53;;
8066;SDS011;4076;48.076;9.118;2022-08-19T01:12:39;342.77;;;328.77;;
8066;SDS011;4076;48.076;9.118;2022-08-19T01:15:05;320.77;;;306.77;;
8066;SDS011;4076;48.076;9.118;2022-08-19T01:17:33;281.67;;;269.93;;
8066;SDS011;4076;48.076;9.118;2022-08-19T01:20:03;301.63;;;288.97;;
8066;SDS011;4076;48.076;9.118;2022-08-19T01:22:46;331.83;;;318.13;;
8066;SDS011;4076;48.076;9.118;2022-08-19T01:25:15;335.27;;;321.17;;
8066;SDS011;4076;48.076;9.118;2022-08-19T01:27:45;315.57;;;302.00;;
8066;SDS011;4076;48.076;9.118;2022-08-19T01:30:13;310.93;;;297.83;;
8066;SDS011;4076;48.076;9.118;2022-08-19T01:32:42;287.00;;;275.53;;
8066;SDS011;4076;48.076;9.118;2022-08-19T01:35:08;260.33;;;249.33;;
8066;SDS011;4076;48.076;9.118;2022-08-19T01:37:42;234.80;;;224.97;;
8066;SDS011;4076;48.076;9.118;2022-08-19T01:40:10;248.43;;;237.93;;
8066;SDS011;4076;48.076;9.118;2022-08-19T01:42:36;235.20;;;225.40;;
8066;SDS011;4076;48.076;9.118;2022-08-19T01:45:03;225.60;;;216.20;;
8066;SDS011;4076;48.076;9.118;2022-08-19T01:47:29;244.57;;;233.40;;
8066;SDS011;4076;48.076;9.118;2022-08-19T01:49:54;242.70;;;231.83;;
8066;SDS011;4076;48.076;9.118;2022-08-19T01:52:20;211.23;;;201.93;;
8066;SDS011;4076;48.076;9.118;2022-08-19T01:54:46;206.87;;;197.87;;
8066;SDS011;4076;48.076;9.118;2022-08-19T01:57:12;183.97;;;175.50;;
8066;SDS011;4076;48.076;9.118;2022-08-19T01:59:39;184.43;;;175.57;;
8066;SDS011;4076;48.076;9.118;2022-08-19T02:02:06;176.17;;;168.07;;
8066;SDS011;4076;48.076;9.118;2022-08-19T02:04:35;163.33;;;155.63;;
8066;SDS011;4076;48.076;9.118;2022-08-19T02:07:03;158.00;;;150.60;;
8066;SDS011;4076;48.076;9.118;2022-08-19T02:09:30;163.63;;;155.40;;
8066;SDS011;4076;48.076;9.118;2022-08-19T02:11:57;175.97;;;167.47;;
8066;SDS011;4076;48.076;9.118;2022-08-19T02:14:23;189.23;;;180.13;;
8066;SDS011;4076;48.076;9.118;2022-08-19T02:16:48;154.27;;;146.77;;
8066;SDS011;4076;48.076;9.118;2022-08-19T02:19:14;152.40;;;144.30;;
8066;SDS011;4076;48.076;9.118;2022-08-19T02:21:39;198.00;;;188.37;;
8066;SDS011;4076;48.076;9.118;2022-08-19T02:24:05;190.87;;;181.70;;
8066;SDS011;4076;48.076;9.118;2022-08-19T02:26:31;179.13;;;170.37;;
8066;SDS011;4076;48.076;9.118;2022-08-19T02:28:57;182.10;;;172.73;;
8066;SDS011;4076;48.076;9.118;2022-08-19T02:31:24;179.80;;;170.83;;
8066;SDS011;4076;48.076;9.118;2022-08-19T02:33:51;169.50;;;161.37;;
8066;SDS011;4076;48.076;9.118;2022-08-19T02:36:17;140.37;;;133.57;;
8066;SDS011;4076;48.076;9.118;2022-08-19T02:38:43;165.37;;;156.87;;
8066;SDS011;4076;48.076;9.118;2022-08-19T02:41:28;147.53;;;139.97;;
8066;SDS011;4076;48.076;9.118;2022-08-19T02:43:57;112.50;;;106.13;;
8066;SDS011;4076;48.076;9.118;2022-08-19T02:46:25;110.47;;;104.33;;
8066;SDS011;4076;48.076;9.118;2022-08-19T02:48:53;123.97;;;116.87;;
8066;SDS011;4076;48.076;9.118;2022-08-19T02:51:24;101.57;;;95.43;;
8066;SDS011;4076;48.076;9.118;2022-08-19T02:54:00;128.20;;;120.93;;
8066;SDS011;4076;48.076;9.118;2022-08-19T02:56:27;123.70;;;116.90;;
8066;SDS011;4076;48.076;9.118;2022-08-19T02:58:53;113.23;;;106.93;;
8066;SDS011;4076;48.076;9.118;2022-08-19T03:01:28;100.00;;;94.10;;
8066;SDS011;4076;48.076;9.118;2022-08-19T03:03:57;92.93;;;87.17;;
8066;SDS011;4076;48.076;9.118;2022-08-19T03:06:25;101.33;;;95.40;;
8066;SDS011;4076;48.076;9.118;2022-08-19T03:08:51;94.43;;;88.67;;
8066;SDS011;4076;48.076;9.118;2022-08-19T03:11:18;94.23;;;87.77;;
8066;SDS011;4076;48.076;9.118;2022-08-19T03:13:46;86.23;;;80.73;;
8066;SDS011;4076;48.076;9.118;2022-08-19T03:16:14;78.57;;;73.57;;
8066;SDS011;4076;48.076;9.118;2022-08-19T03:18:41;82.37;;;76.47;;
8066;SDS011;4076;48.076;9.118;2022-08-19T03:21:06;92.13;;;86.40;;
8066;SDS011;4076;48.076;9.118;2022-08-19T03:23:32;91.73;;;85.43;;
8066;SDS011;4076;48.076;9.118;2022-08-19T03:25:58;92.53;;;86.40;;
8066;SDS011;4076;48.076;9.118;2022-08-19T03:28:28;91.87;;;85.93;;
8066;SDS011;4076;48.076;9.118;2022-08-19T03:30:55;92.67;;;86.73;;
8066;SDS011;4076;48.076;9.118;2022-08-19T03:33:22;80.53;;;75.13;;
8066;SDS011;4076;48.076;9.118;2022-08-19T03:35:59;92.87;;;86.83;;
8066;SDS011;4076;48.076;9.118;2022-08-19T03:38:27;82.10;;;76.03;;
8066;SDS011;4076;48.076;9.118;2022-08-19T03:40:53;77.30;;;71.97;;
8066;SDS011;4076;48.076;9.118;2022-08-19T03:43:18;65.53;;;60.60;;
8066;SDS011;4076;48.076;9.118;2022-08-19T03:45:44;63.30;;;58.73;;
8066;SDS011;4076;48.076;9.118;2022-08-19T03:48:10;63.07;;;58.37;;
8066;SDS011;4076;48.076;9.118;2022-08-19T03:50:39;61.00;;;55.80;;
8066;SDS011;4076;48.076;9.118;2022-08-19T03:53:05;62.93;;;57.30;;
8066;SDS011;4076;48.076;9.118;2022-08-19T03:55:34;54.00;;;48.93;;
8066;SDS011;4076;48.076;9.118;2022-08-19T03:58:05;55.33;;;50.40;;
8066;SDS011;4076;48.076;9.118;2022-08-19T04:00:31;47.30;;;42.83;;
8066;SDS011;4076;48.076;9.118;2022-08-19T04:02:58;39.93;;;35.93;;
8066;SDS011;4076;48.076;9.118;2022-08-19T04:05:24;54.47;;;48.90;;
8066;SDS011;4076;48.076;9.118;2022-08-19T04:07:52;55.03;;;49.87;;
8066;SDS011;4076;48.076;9.118;2022-08-19T04:10:17;54.80;;;49.57;;
8066;SDS011;4076;48.076;9.118;2022-08-19T04:12:43;49.47;;;44.73;;
8066;SDS011;4076;48.076;9.118;2022-08-19T04:15:09;44.10;;;39.77;;
8066;SDS011;4076;48.076;9.118;2022-08-19T04:17:35;42.47;;;35.57;;
8066;SDS011;4076;48.076;9.118;2022-08-19T04:20:00;48.53;;;43.73;;
8066;SDS011;4076;48.076;9.118;2022-08-19T04:22:26;42.33;;;37.83;;
8066;SDS011;4076;48.076;9.118;2022-08-19T04:24:51;38.53;;;34.43;;
8066;SDS011;4076;48.076;9.118;2022-08-19T04:27:17;36.80;;;32.97;;
8066;SDS011;4076;48.076;9.118;2022-08-19T04:29:42;38.77;;;33.37;;
8066;SDS011;4076;48.076;9.118;2022-08-19T04:32:08;32.37;;;27.67;;
8066;SDS011;4076;48.076;9.118;2022-08-19T04:34:33;35.13;;;27.60;;
8066;SDS011;4076;48.076;9.118;2022-08-19T04:36:59;33.97;;;24.47;;
8066;SDS011;4076;48.076;9.118;2022-08-19T04:39:26;33.17;;;24.73;;
8066;SDS011;4076;48.076;9.118;2022-08-19T04:42:15;28.60;;;20.43;;
8066;SDS011;4076;48.076;9.118;2022-08-19T04:45:00;45.00;;;31.20;;
8066;SDS011;4076;48.076;9.118;2022-08-19T04:47:27;50.90;;;34.97;;
8066;SDS011;4076;48.076;9.118;2022-08-19T04:49:53;43.17;;;34.60;;
8066;SDS011;4076;48.076;9.118;2022-08-19T04:52:18;36.53;;;25.47;;
8066;SDS011;4076;48.076;9.118;2022-08-19T04:54:44;38.27;;;27.27;;
8066;SDS011;4076;48.076;9.118;2022-08-19T04:57:10;42.33;;;29.73;;
8066;SDS011;4076;48.076;9.118;2022-08-19T04:59:36;35.80;;;23.97;;
8066;SDS011;4076;48.076;9.118;2022-08-19T05:02:03;32.90;;;21.73;;
8066;SDS011;4076;48.076;9.118;2022-08-19T05:04:29;27.17;;;17.17;;
8066;SDS011;4076;48.076;9.118;2022-08-19T05:06:56;33.80;;;23.00;;
8066;SDS011;4076;48.076;9.118;2022-08-19T05:09:22;35.03;;;21.07;;
8066;SDS011;4076;48.076;9.118;2022-08-19T05:11:48;33.77;;;21.10;;
8066;SDS011;4076;48.076;9.118;2022-08-19T05:14:15;31.93;;;19.20;;
8066;SDS011;4076;48.076;9.118;2022-08-19T05:16:41;37.60;;;25.70;;
8066;SDS011;4076;48.076;9.118;2022-08-19T05:19:07;44.83;;;27.03;;
8066;SDS011;4076;48.076;9.118;2022-08-19T05:21:51;37.13;;;20.03;;
8066;SDS011;4076;48.076;9.118;2022-08-19T05:24:35;33.73;;;20.00;;
8066;SDS011;4076;48.076;9.118;2022-08-19T05:27:01;33.73;;;16.50;;
8066;SDS011;4076;48.076;9.118;2022-08-19T05:29:28;30.83;;;16.43;;
8066;SDS011;4076;48.076;9.118;2022-08-19T05:31:56;40.33;;;23.90;;
8066;SDS011;4076;48.076;9.118;2022-08-19T05:34:22;39.87;;;26.23;;
8066;SDS011;4076;48.076;9.118;2022-08-19T05:36:53;33.23;;;19.50;;
8066;SDS011;4076;48.076;9.118;2022-08-19T05:39:22;31.33;;;17.97;;
8066;SDS011;4076;48.076;9.118;2022-08-19T05:41:51;30.27;;;15.37;;
8066;SDS011;4076;48.076;9.118;2022-08-19T05:44:22;42.03;;;24.60;;
8066;SDS011;4076;48.076;9.118;2022-08-19T05:46:48;36.00;;;22.53;;
8066;SDS011;4076;48.076;9.118;2022-08-19T05:49:17;40.93;;;26.10;;
8066;SDS011;4076;48.076;9.118;2022-08-19T05:51:43;35.77;;;22.87;;
8066;SDS011;4076;48.076;9.118;2022-08-19T05:54:09;40.83;;;23.30;;
8066;SDS011;4076;48.076;9.118;2022-08-19T05:56:38;38.73;;;23.13;;
8066;SDS011;4076;48.076;9.118;2022-08-19T05:59:04;39.10;;;23.77;;
8066;SDS011;4076;48.076;9.118;2022-08-19T06:01:34;51.07;;;31.70;;
8066;SDS011;4076;48.076;9.118;2022-08-19T06:04:00;37.70;;;21.47;;
8066;SDS011;4076;48.076;9.118;2022-08-19T06:06:27;43.33;;;25.40;;
8066;SDS011;4076;48.076;9.118;2022-08-19T06:08:52;44.57;;;28.17;;
8066;SDS011;4076;48.076;9.118;2022-08-19T06:11:37;46.53;;;29.37;;
8066;SDS011;4076;48.076;9.118;2022-08-19T06:14:08;48.23;;;31.23;;
8066;SDS011;4076;48.076;9.118;2022-08-19T06:16:37;47.87;;;27.57;;
8066;SDS011;4076;48.076;9.118;2022-08-19T06:19:05;35.43;;;19.10;;
8066;SDS011;4076;48.076;9.118;2022-08-19T06:21:33;40.03;;;20.50;;
8066;SDS011;4076;48.076;9.118;2022-08-19T06:24:01;46.67;;;24.33;;
8066;SDS011;4076;48.076;9.118;2022-08-19T06:26:28;38.10;;;20.40;;
8066;SDS011;4076;48.076;9.118;2022-08-19T06:28:54;39.83;;;22.60;;
8066;SDS011;4076;48.076;9.118;2022-08-19T06:31:26;38.97;;;22.80;;
8066;SDS011;4076;48.076;9.118;2022-08-19T06:33:53;51.27;;;29.07;;
8066;SDS011;4076;48.076;9.118;2022-08-19T06:36:19;41.17;;;23.53;;
8066;SDS011;4076;48.076;9.118;2022-08-19T06:38:57;44.00;;;24.40;;
8066;SDS011;4076;48.076;9.118;2022-08-19T06:41:24;41.17;;;24.70;;
8066;SDS011;4076;48.076;9.118;2022-08-19T06:43:50;45.30;;;26.57;;
8066;SDS011;4076;48.076;9.118;2022-08-19T06:46:17;43.77;;;26.90;;
8066;SDS011;4076;48.076;9.118;2022-08-19T06:48:44;52.20;;;30.90;;
8066;SDS011;4076;48.076;9.118;2022-08-19T06:51:10;36.83;;;21.17;;
8066;SDS011;4076;48.076;9.118;2022-08-19T06:53:36;46.33;;;28.23;;
8066;SDS011;4076;48.076;9.118;2022-08-19T06:56:04;43.90;;;27.53;;
8066;SDS011;4076;48.076;9.118;2022-08-19T06:58:30;45.07;;;28.70;;
8066;SDS011;4076;48.076;9.118;2022-08-19T07:00:59;44.73;;;25.97;;
8066;SDS011;4076;48.076;9.118;2022-08-19T07:03:28;40.97;;;25.90;;
8066;SDS011;4076;48.076;9.118;2022-08-19T07:06:10;41.27;;;29.57;;
8066;SDS011;4076;48.076;9.118;2022-08-19T07:08:39;40.40;;;24.87;;
8066;SDS011;4076;48.076;9.118;2022-08-19T07:11:06;52.50;;;32.43;;
8066;SDS011;4076;48.076;9.118;2022-08-19T07:13:33;43.23;;;32.87;;
8066;SDS011;4076;48.076;9.118;2022-08-19T07:16:05;41.83;;;29.90;;
8066;SDS011;4076;48.076;9.118;2022-08-19T07:18:32;46.10;;;39.33;;
8066;SDS011;4076;48.076;9.118;2022-08-19T07:21:02;49.00;;;38.07;;
8066;SDS011;4076;48.076;9.118;2022-08-19T07:23:32;56.67;;;50.47;;
8066;SDS011;4076;48.076;9.118;2022-08-19T07:25:58;65.87;;;59.77;;
8066;SDS011;4076;48.076;9.118;2022-08-19T07:28:44;66.53;;;60.30;;
8066;SDS011;4076;48.076;9.118;2022-08-19T07:31:11;55.67;;;49.67;;
8066;SDS011;4076;48.076;9.118;2022-08-19T07:33:43;54.53;;;49.23;;
8066;SDS011;4076;48.076;9.118;2022-08-19T07:36:10;58.33;;;52.73;;
8066;SDS011;4076;48.076;9.118;2022-08-19T07:38:38;62.07;;;56.67;;
8066;SDS011;4076;48.076;9.118;2022-08-19T07:41:06;71.77;;;65.00;;
8066;SDS011;4076;48.076;9.118;2022-08-19T07:43:34;85.37;;;79.00;;
8066;SDS011;4076;48.076;9.118;2022-08-19T07:45:59;83.93;;;77.83;;
8066;SDS011;4076;48.076;9.118;2022-08-19T07:48:25;91.63;;;85.43;;
8066;SDS011;4076;48.076;9.118;2022-08-19T07:50:53;95.60;;;88.43;;
8066;SDS011;4076;48.076;9.118;2022-08-19T07:53:24;103.57;;;96.57;;
8066;SDS011;4076;48.076;9.118;2022-08-19T07:55:50;108.70;;;101.73;;
8066;SDS011;4076;48.076;9.118;2022-08-19T07:58:19;109.03;;;101.90;;
8066;SDS011;4076;48.076;9.118;2022-08-19T08:00:47;119.73;;;112.53;;
8066;SDS011;4076;48.076;9.118;2022-08-19T08:03:15;124.00;;;115.97;;
8066;SDS011;4076;48.076;9.118;2022-08-19T08:05:43;127.93;;;120.40;;
8066;SDS011;4076;48.076;9.118;2022-08-19T08:08:27;116.67;;;109.67;;
8066;SDS011;4076;48.076;9.118;2022-08-19T08:11:12;121.50;;;114.60;;
8066;SDS011;4076;48.076;9.118;2022-08-19T08:13:39;134.70;;;127.70;;
8066;SDS011;4076;48.076;9.118;2022-08-19T08:16:06;124.37;;;116.93;;
8066;SDS011;4076;48.076;9.118;2022-08-19T08:18:32;123.20;;;116.00;;
8066;SDS011;4076;48.076;9.118;2022-08-19T08:21:06;127.33;;;120.13;;
8066;SDS011;4076;48.076;9.118;2022-08-19T08:23:31;144.77;;;136.97;;
8066;SDS011;4076;48.076;9.118;2022-08-19T08:25:57;137.90;;;130.40;;
8066;SDS011;4076;48.076;9.118;2022-08-19T08:28:25;142.60;;;135.00;;
8066;SDS011;4076;48.076;9.118;2022-08-19T08:30:52;138.87;;;130.87;;
8066;SDS011;4076;48.076;9.118;2022-08-19T08:33:20;144.97;;;136.73;;
8066;SDS011;4076;48.076;9.118;2022-08-19T08:35:47;145.70;;;138.00;;
8066;SDS011;4076;48.076;9.118;2022-08-19T08:38:13;152.20;;;144.33;;
8066;SDS011;4076;48.076;9.118;2022-08-19T08:43:18;55.97;;;50.67;;
8066;SDS011;4076;48.076;9.118;2022-08-19T08:46:06;72.73;;;66.67;;
8066;SDS011;4076;48.076;9.118;2022-08-19T08:49:02;77.03;;;71.57;;
8066;SDS011;4076;48.076;9.118;2022-08-19T08:51:40;85.90;;;79.03;;
8066;SDS011;4076;48.076;9.118;2022-08-19T08:54:10;89.70;;;83.53;;
8066;SDS011;4076;48.076;9.118;2022-08-19T08:56:38;92.60;;;86.67;;
8066;SDS011;4076;48.076;9.118;2022-08-19T08:59:06;88.40;;;82.03;;
8066;SDS011;4076;48.076;9.118;2022-08-19T09:01:37;92.67;;;86.40;;
8066;SDS011;4076;48.076;9.118;2022-08-19T09:04:06;93.90;;;87.43;;
8066;SDS011;4076;48.076;9.118;2022-08-19T09:07:12;90.60;;;84.23;;
8066;SDS011;4076;48.076;9.118;2022-08-19T09:15:22;72.77;;;67.73;;
8066;SDS011;4076;48.076;9.118;2022-08-19T09:17:54;73.13;;;67.27;;
8066;SDS011;4076;48.076;9.118;2022-08-19T09:20:26;75.03;;;69.37;;
8066;SDS011;4076;48.076;9.118;2022-08-19T09:22:52;73.20;;;67.83;;
8066;SDS011;4076;48.076;9.118;2022-08-19T09:25:19;76.13;;;70.13;;
8066;SDS011;4076;48.076;9.118;2022-08-19T09:27:47;62.00;;;57.27;;
8066;SDS011;4076;48.076;9.118;2022-08-19T09:30:17;62.53;;;57.40;;
8066;SDS011;4076;48.076;9.118;2022-08-19T09:32:45;61.93;;;56.43;;
8066;SDS011;4076;48.076;9.118;2022-08-19T09:35:12;59.10;;;54.37;;
8066;SDS011;4076;48.076;9.118;2022-08-19T09:37:39;51.23;;;47.17;;
8066;SDS011;4076;48.076;9.118;2022-08-19T09:40:05;66.57;;;61.40;;
8066;SDS011;4076;48.076;9.118;2022-08-19T09:42:32;66.73;;;61.70;;
8066;SDS011;4076;48.076;9.118;2022-08-19T09:44:58;65.13;;;60.27;;
8066;SDS011;4076;48.076;9.118;2022-08-19T09:47:24;65.03;;;60.40;;
8066;SDS011;4076;48.076;9.118;2022-08-19T09:49:50;68.70;;;64.00;;
8066;SDS011;4076;48.076;9.118;2022-08-19T09:52:15;75.17;;;70.10;;
8066;SDS011;4076;48.076;9.118;2022-08-19T09:54:41;82.93;;;77.73;;
8066;SDS011;4076;48.076;9.118;2022-08-19T09:57:07;77.33;;;71.97;;
8066;SDS011;4076;48.076;9.118;2022-08-19T09:59:33;75.57;;;70.20;;
8066;SDS011;4076;48.076;9.118;2022-08-19T10:01:59;77.67;;;72.07;;
8066;SDS011;4076;48.076;9.118;2022-08-19T10:04:24;82.27;;;77.20;;
8066;SDS011;4076;48.076;9.118;2022-08-19T10:07:10;82.37;;;76.83;;
8066;SDS011;4076;48.076;9.118;2022-08-19T10:09:36;81.30;;;76.20;;
8066;SDS011;4076;48.076;9.118;2022-08-19T10:12:02;79.57;;;74.57;;
8066;SDS011;4076;48.076;9.118;2022-08-19T10:14:29;81.70;;;76.03;;
8066;SDS011;4076;48.076;9.118;2022-08-19T10:16:55;74.00;;;69.37;;
8066;SDS011;4076;48.076;9.118;2022-08-19T10:19:21;79.73;;;74.83;;
8066;SDS011;4076;48.076;9.118;2022-08-19T10:21:47;77.57;;;72.77;;
8066;SDS011;4076;48.076;9.118;2022-08-19T10:24:12;73.37;;;68.70;;
8066;SDS011;4076;48.076;9.118;2022-08-19T10:26:38;73.97;;;69.20;;
8066;SDS011;4076;48.076;9.118;2022-08-19T10:29:09;84.10;;;78.97;;
8066;SDS011;4076;48.076;9.118;2022-08-19T10:31:36;73.17;;;68.67;;
8066;SDS011;4076;48.076;9.118;2022-08-19T10:34:02;86.03;;;80.93;;
8066;SDS011;4076;48.076;9.118;2022-08-19T10:36:29;84.40;;;79.33;;
8066;SDS011;4076;48.076;9.118;2022-08-19T10:38:57;81.07;;;76.47;;
8066;SDS011;4076;48.076;9.118;2022-08-19T10:41:26;82.40;;;77.77;;
8066;SDS011;4076;48.076;9.118;2022-08-19T10:43:55;85.90;;;81.07;;
8066;SDS011;4076;48.076;9.118;2022-08-19T10:46:26;89.03;;;84.20;;
8066;SDS011;4076;48.076;9.118;2022-08-19T10:48:53;89.73;;;84.23;;
8066;SDS011;4076;48.076;9.118;2022-08-19T10:51:19;88.47;;;83.30;;
8066;SDS011;4076;48.076;9.118;2022-08-19T10:54:04;75.83;;;71.03;;
8066;SDS011;4076;48.076;9.118;2022-08-19T10:56:31;76.03;;;71.40;;
8066;SDS011;4076;48.076;9.118;2022-08-19T10:59:16;73.50;;;69.10;;
8066;SDS011;4076;48.076;9.118;2022-08-19T11:01:47;83.73;;;79.00;;
8066;SDS011;4076;48.076;9.118;2022-08-19T11:04:13;88.67;;;83.93;;
8066;SDS011;4076;48.076;9.118;2022-08-19T11:06:43;84.87;;;79.93;;
8066;SDS011;4076;48.076;9.118;2022-08-19T11:09:10;80.50;;;76.10;;
8066;SDS011;4076;48.076;9.118;2022-08-19T11:11:36;78.80;;;74.33;;
8066;SDS011;4076;48.076;9.118;2022-08-19T11:14:10;77.93;;;73.43;;
8066;SDS011;4076;48.076;9.118;2022-08-19T11:16:37;85.47;;;81.00;;
8066;SDS011;4076;48.076;9.118;2022-08-19T11:19:04;92.90;;;88.07;;
8066;SDS011;4076;48.076;9.118;2022-08-19T11:21:33;88.00;;;83.30;;
8066;SDS011;4076;48.076;9.118;2022-08-19T11:24:02;95.53;;;90.57;;
8066;SDS011;4076;48.076;9.118;2022-08-19T11:26:31;87.30;;;82.63;;
8066;SDS011;4076;48.076;9.118;2022-08-19T11:28:59;95.80;;;90.97;;
8066;SDS011;4076;48.076;9.118;2022-08-19T11:31:26;96.70;;;92.03;;
8066;SDS011;4076;48.076;9.118;2022-08-19T11:33:59;92.70;;;88.07;;
8066;SDS011;4076;48.076;9.118;2022-08-19T11:36:26;92.83;;;88.17;;
8066;SDS011;4076;48.076;9.118;2022-08-19T11:38:53;87.90;;;83.37;;
8066;SDS011;4076;48.076;9.118;2022-08-19T11:41:19;93.80;;;88.87;;
8066;SDS011;4076;48.076;9.118;2022-08-19T11:43:48;90.53;;;85.93;;
8066;SDS011;4076;48.076;9.118;2022-08-19T11:46:20;94.37;;;89.63;;
8066;SDS011;4076;48.076;9.118;2022-08-19T11:48:47;82.40;;;77.90;;
8066;SDS011;4076;48.076;9.118;2022-08-19T11:51:16;74.63;;;70.27;;
8066;SDS011;4076;48.076;9.118;2022-08-19T11:53:47;89.47;;;84.73;;
8066;SDS011;4076;48.076;9.118;2022-08-19T11:56:14;89.43;;;84.80;;
8066;SDS011;4076;48.076;9.118;2022-08-19T11:58:39;104.63;;;99.53;;
8066;SDS011;4076;48.076;9.118;2022-08-19T12:01:09;109.63;;;104.37;;
8066;SDS011;4076;48.076;9.118;2022-08-19T12:03:36;115.90;;;110.70;;
8066;SDS011;4076;48.076;9.118;2022-08-19T12:06:05;124.63;;;119.13;;
8066;SDS011;4076;48.076;9.118;2022-08-19T12:08:32;130.67;;;125.07;;
8066;SDS011;4076;48.076;9.118;2022-08-19T12:10:58;127.37;;;121.77;;
8066;SDS011;4076;48.076;9.118;2022-08-19T12:13:26;130.27;;;124.53;;
8066;SDS011;4076;48.076;9.118;2022-08-19T12:15:53;147.97;;;141.50;;
8066;SDS011;4076;48.076;9.118;2022-08-19T12:18:19;151.47;;;145.03;;
8066;SDS011;4076;48.076;9.118;2022-08-19T12:20:45;157.90;;;150.90;;
8066;SDS011;4076;48.076;9.118;2022-08-19T12:23:11;160.50;;;153.57;;
8066;SDS011;4076;48.076;9.118;2022-08-19T12:25:37;179.47;;;171.47;;
8066;SDS011;4076;48.076;9.118;2022-08-19T12:28:14;161.07;;;154.20;;
8066;SDS011;4076;48.076;9.118;2022-08-19T12:30:44;158.90;;;152.13;;
8066;SDS011;4076;48.076;9.118;2022-08-19T12:33:09;161.87;;;155.00;;
8066;SDS011;4076;48.076;9.118;2022-08-19T12:35:35;164.73;;;157.73;;
8066;SDS011;4076;48.076;9.118;2022-08-19T12:38:04;164.27;;;157.43;;
8066;SDS011;4076;48.076;9.118;2022-08-19T12:40:30;160.23;;;153.20;;
8066;SDS011;4076;48.076;9.118;2022-08-19T12:42:55;147.40;;;141.00;;
8066;SDS011;4076;48.076;9.118;2022-08-19T12:45:21;156.20;;;149.73;;
8066;SDS011;4076;48.076;9.118;2022-08-19T12:47:47;165.83;;;158.93;;
8066;SDS011;4076;48.076;9.118;2022-08-19T12:50:13;170.20;;;163.13;;
8066;SDS011;4076;48.076;9.118;2022-08-19T12:52:38;155.20;;;148.60;;
8066;SDS011;4076;48.076;9.118;2022-08-19T12:55:06;148.67;;;142.37;;
8066;SDS011;4076;48.076;9.118;2022-08-19T12:57:32;152.83;;;146.53;;
8066;SDS011;4076;48.076;9.118;2022-08-19T13:00:05;161.90;;;154.93;;
8066;SDS011;4076;48.076;9.118;2022-08-19T13:02:40;144.70;;;138.37;;
8066;SDS011;4076;48.076;9.118;2022-08-19T13:05:12;146.80;;;140.37;;
8066;SDS011;4076;48.076;9.118;2022-08-19T13:07:45;147.57;;;141.23;;
8066;SDS011;4076;48.076;9.118;2022-08-19T13:10:12;144.60;;;138.17;;
8066;SDS011;4076;48.076;9.118;2022-08-19T13:12:42;138.87;;;132.90;;
8066;SDS011;4076;48.076;9.118;2022-08-19T13:15:08;136.23;;;130.43;;
8066;SDS011;4076;48.076;9.118;2022-08-19T13:17:35;146.03;;;139.90;;
8066;SDS011;4076;48.076;9.118;2022-08-19T13:20:01;131.30;;;125.50;;
8066;SDS011;4076;48.076;9.118;2022-08-19T13:22:29;134.80;;;128.90;;
8066;SDS011;4076;48.076;9.118;2022-08-19T13:24:54;138.40;;;132.33;;
8066;SDS011;4076;48.076;9.118;2022-08-19T13:27:20;144.77;;;138.27;;
8066;SDS011;4076;48.076;9.118;2022-08-19T13:29:45;143.60;;;137.30;;
8066;SDS011;4076;48.076;9.118;2022-08-19T13:32:30;133.67;;;127.70;;
8066;SDS011;4076;48.076;9.118;2022-08-19T13:35:15;132.87;;;127.13;;
8066;SDS011;4076;48.076;9.118;2022-08-19T13:37:41;126.10;;;120.50;;
8066;SDS011;4076;48.076;9.118;2022-08-19T13:40:07;142.13;;;135.47;;
8066;SDS011;4076;48.076;9.118;2022-08-19T13:42:39;138.83;;;131.97;;
8066;SDS011;4076;48.076;9.118;2022-08-19T13:45:06;163.93;;;155.27;;
8066;SDS011;4076;48.076;9.118;2022-08-19T13:47:32;161.07;;;152.97;;
8066;SDS011;4076;48.076;9.118;2022-08-19T13:50:07;141.10;;;134.30;;
8066;SDS011;4076;48.076;9.118;2022-08-19T13:52:34;137.33;;;130.13;;
8066;SDS011;4076;48.076;9.118;2022-08-19T13:55:00;138.00;;;130.80;;
8066;SDS011;4076;48.076;9.118;2022-08-19T13:57:25;138.73;;;131.90;;
8066;SDS011;4076;48.076;9.118;2022-08-19T13:59:51;133.57;;;126.60;;
8066;SDS011;4076;48.076;9.118;2022-08-19T14:02:16;117.43;;;110.83;;
8066;SDS011;4076;48.076;9.118;2022-08-19T14:04:42;114.10;;;108.20;;
8066;SDS011;4076;48.076;9.118;2022-08-19T14:07:07;116.97;;;111.20;;
8066;SDS011;4076;48.076;9.118;2022-08-19T14:09:34;103.60;;;98.30;;
8066;SDS011;4076;48.076;9.118;2022-08-19T14:12:00;125.63;;;119.43;;
8066;SDS011;4076;48.076;9.118;2022-08-19T14:14:25;119.43;;;113.43;;
8066;SDS011;4076;48.076;9.118;2022-08-19T14:16:51;129.13;;;122.70;;
8066;SDS011;4076;48.076;9.118;2022-08-19T14:19:16;130.50;;;124.37;;
8066;SDS011;4076;48.076;9.118;2022-08-19T14:21:42;144.10;;;136.97;;
8066;SDS011;4076;48.076;9.118;2022-08-19T14:24:08;145.33;;;138.73;;
8066;SDS011;4076;48.076;9.118;2022-08-19T14:26:34;124.87;;;119.07;;
8066;SDS011;4076;48.076;9.118;2022-08-19T14:28:59;131.13;;;125.27;;
8066;SDS011;4076;48.076;9.118;2022-08-19T14:31:26;136.13;;;129.83;;
8066;SDS011;4076;48.076;9.118;2022-08-19T14:33:52;131.13;;;125.17;;
8066;SDS011;4076;48.076;9.118;2022-08-19T14:36:18;140.37;;;134.37;;
8066;SDS011;4076;48.076;9.118;2022-08-19T14:38:45;131.83;;;125.43;;
8066;SDS011;4076;48.076;9.118;2022-08-19T14:41:15;140.80;;;134.03;;
8066;SDS011;4076;48.076;9.118;2022-08-19T14:43:42;158.33;;;151.43;;
8066;SDS011;4076;48.076;9.118;2022-08-19T14:46:11;169.10;;;161.60;;
8066;SDS011;4076;48.076;9.118;2022-08-19T14:48:38;184.40;;;176.57;;
8066;SDS011;4076;48.076;9.118;2022-08-19T14:51:04;170.80;;;163.60;;